sensor_id;sensor_type;location;lat;lon;timestamp;temperature;humidity
23873;DHT22;42884;50.718;4.630;2023-02-14T00:01:34;2.40;99.90
23873;DHT22;42884;50.718;4.630;2023-02-14T00:04:00;2.40;99.90
23873;DHT22;42884;50.718;4.630;2023-02-14T00:06:26;2.40;99.90
23873;DHT22;42884;50.718;4.630;2023-02-14T00:08:52;2.30;99.90
23873;DHT22;42884;50.718;4.630;2023-02-14T00:11:20;2.30;99.90
23873;DHT22;42884;50.718;4.630;2023-02-14T00:13:46;2.20;99.90
23873;DHT22;42884;50.718;4.630;2023-02-14T00:16:30;2.30;99.90
23873;DHT22;42884;50.718;4.630;2023-02-14T00:18:56;2.30;99.90
23873;DHT22;42884;50.718;4.630;2023-02-14T00:21:28;2.30;99.90
23873;DHT22;42884;50.718;4.630;2023-02-14T00:23:53;2.20;99.90
23873;DHT22;42884;50.718;4.630;2023-02-14T00:26:19;2.20;99.90
23873;DHT22;42884;50.718;4.630;2023-02-14T00:28:45;2.20;99.90
23873;DHT22;42884;50.718;4.630;2023-02-14T00:31:10;2.10;99.90
23873;DHT22;42884;50.718;4.630;2023-02-14T00:33:36;2.10;99.90
23873;DHT22;42884;50.718;4.630;2023-02-14T00:36:02;2.10;99.90
23873;DHT22;42884;50.718;4.630;2023-02-14T00:38:28;2.10;99.90
23873;DHT22;42884;50.718;4.630;2023-02-14T00:40:54;2.00;99.90
23873;DHT22;42884;50.718;4.630;2023-02-14T00:43:20;2.10;99.90
23873;DHT22;42884;50.718;4.630;2023-02-14T00:45:45;2.10;99.90
23873;DHT22;42884;50.718;4.630;2023-02-14T00:48:11;2.00;99.90
23873;DHT22;42884;50.718;4.630;2023-02-14T00:50:36;2.10;99.90
23873;DHT22;42884;50.718;4.630;2023-02-14T00:53:02;2.00;99.90
23873;DHT22;42884;50.718;4.630;2023-02-14T00:55:27;2.10;99.90
23873;DHT22;42884;50.718;4.630;2023-02-14T00:57:53;2.00;99.90
23873;DHT22;42884;50.718;4.630;2023-02-14T01:00:19;2.00;99.90
23873;DHT22;42884;50.718;4.630;2023-02-14T01:02:44;2.00;99.90
23873;DHT22;42884;50.718;4.630;2023-02-14T01:05:10;1.90;99.90
23873;DHT22;42884;50.718;4.630;2023-02-14T01:07:36;1.80;99.90
23873;DHT22;42884;50.718;4.630;2023-02-14T01:10:01;1.90;99.90
23873;DHT22;42884;50.718;4.630;2023-02-14T01:12:27;1.90;99.90
23873;DHT22;42884;50.718;4.630;2023-02-14T01:14:52;1.90;99.90
23873;DHT22;42884;50.718;4.630;2023-02-14T01:17:18;1.90;99.90
23873;DHT22;42884;50.718;4.630;2023-02-14T01:19:44;1.90;99.90
23873;DHT22;42884;50.718;4.630;2023-02-14T01:22:09;1.90;99.90
23873;DHT22;42884;50.718;4.630;2023-02-14T01:24:35;1.80;99.90
23873;DHT22;42884;50.718;4.630;2023-02-14T01:27:00;1.80;99.90
23873;DHT22;42884;50.718;4.630;2023-02-14T01:29:26;1.80;99.90
23873;DHT22;42884;50.718;4.630;2023-02-14T01:31:51;1.80;99.90
23873;DHT22;42884;50.718;4.630;2023-02-14T01:34:17;1.80;99.90
23873;DHT22;42884;50.718;4.630;2023-02-14T01:36:43;1.70;99.90
23873;DHT22;42884;50.718;4.630;2023-02-14T01:39:12;1.70;99.90
23873;DHT22;42884;50.718;4.630;2023-02-14T01:41:39;1.70;99.90
23873;DHT22;42884;50.718;4.630;2023-02-14T01:46:41;1.70;99.90
23873;DHT22;42884;50.718;4.630;2023-02-14T01:49:12;1.70;99.90
23873;DHT22;42884;50.718;4.630;2023-02-14T01:51:49;1.60;99.90
23873;DHT22;42884;50.718;4.630;2023-02-14T01:54:16;1.60;99.90
23873;DHT22;42884;50.718;4.630;2023-02-14T01:56:44;1.60;99.90
23873;DHT22;42884;50.718;4.630;2023-02-14T01:59:12;1.60;99.90
23873;DHT22;42884;50.718;4.630;2023-02-14T02:01:38;1.60;99.90
23873;DHT22;42884;50.718;4.630;2023-02-14T02:04:06;1.60;99.90
23873;DHT22;42884;50.718;4.630;2023-02-14T02:06:37;1.60;99.90
23873;DHT22;42884;50.718;4.630;2023-02-14T02:09:09;1.50;99.90
23873;DHT22;42884;50.718;4.630;2023-02-14T02:11:36;1.60;99.90
23873;DHT22;42884;50.718;4.630;2023-02-14T02:14:03;1.60;99.90
23873;DHT22;42884;50.718;4.630;2023-02-14T02:24:40;1.50;99.90
23873;DHT22;42884;50.718;4.630;2023-02-14T02:34:57;1.40;99.90
23873;DHT22;42884;50.718;4.630;2023-02-14T02:42:47;1.40;99.90
23873;DHT22;42884;50.718;4.630;2023-02-14T02:53:06;1.30;99.90
23873;DHT22;42884;50.718;4.630;2023-02-14T02:58:40;1.30;99.90
23873;DHT22;42884;50.718;4.630;2023-02-14T03:01:08;1.30;99.90
23873;DHT22;42884;50.718;4.630;2023-02-14T03:03:34;1.20;99.90
23873;DHT22;42884;50.718;4.630;2023-02-14T03:06:19;1.30;99.90
23873;DHT22;42884;50.718;4.630;2023-02-14T03:08:45;1.20;99.90
23873;DHT22;42884;50.718;4.630;2023-02-14T03:11:11;1.20;99.90
23873;DHT22;42884;50.718;4.630;2023-02-14T03:16:21;1.20;99.90
23873;DHT22;42884;50.718;4.630;2023-02-14T03:25:01;1.20;99.90
23873;DHT22;42884;50.718;4.630;2023-02-14T03:27:08;1.20;99.90
23873;DHT22;42884;50.718;4.630;2023-02-14T03:29:42;1.20;99.90
23873;DHT22;42884;50.718;4.630;2023-02-14T03:32:12;1.20;99.90
23873;DHT22;42884;50.718;4.630;2023-02-14T03:37:11;1.10;99.90
23873;DHT22;42884;50.718;4.630;2023-02-14T03:39:42;1.20;99.90
23873;DHT22;42884;50.718;4.630;2023-02-14T03:42:18;1.20;99.90
23873;DHT22;42884;50.718;4.630;2023-02-14T03:44:45;1.10;99.90
23873;DHT22;42884;50.718;4.630;2023-02-14T03:47:13;1.10;99.90
23873;DHT22;42884;50.718;4.630;2023-02-14T03:49:42;1.10;99.90
23873;DHT22;42884;50.718;4.630;2023-02-14T03:52:09;1.10;99.90
23873;DHT22;42884;50.718;4.630;2023-02-14T03:54:36;1.00;99.90
23873;DHT22;42884;50.718;4.630;2023-02-14T03:57:17;1.10;99.90
23873;DHT22;42884;50.718;4.630;2023-02-14T03:59:45;1.10;99.90
23873;DHT22;42884;50.718;4.630;2023-02-14T04:02:12;1.10;99.90
23873;DHT22;42884;50.718;4.630;2023-02-14T04:04:41;1.00;99.90
23873;DHT22;42884;50.718;4.630;2023-02-14T04:07:14;1.00;99.90
23873;DHT22;42884;50.718;4.630;2023-02-14T04:09:39;1.00;99.90
23873;DHT22;42884;50.718;4.630;2023-02-14T04:12:05;0.90;99.90
23873;DHT22;42884;50.718;4.630;2023-02-14T04:14:31;0.90;99.90
23873;DHT22;42884;50.718;4.630;2023-02-14T04:16:57;0.90;99.90
23873;DHT22;42884;50.718;4.630;2023-02-14T04:19:41;0.90;99.90
23873;DHT22;42884;50.718;4.630;2023-02-14T04:22:07;0.90;99.90
23873;DHT22;42884;50.718;4.630;2023-02-14T04:24:32;0.90;99.90
23873;DHT22;42884;50.718;4.630;2023-02-14T04:26:58;0.90;99.90
23873;DHT22;42884;50.718;4.630;2023-02-14T04:29:43;0.90;99.90
23873;DHT22;42884;50.718;4.630;2023-02-14T04:32:11;0.90;99.90
23873;DHT22;42884;50.718;4.630;2023-02-14T04:34:38;0.90;99.90
23873;DHT22;42884;50.718;4.630;2023-02-14T04:37:04;0.90;99.90
23873;DHT22;42884;50.718;4.630;2023-02-14T04:39:30;0.90;99.90
23873;DHT22;42884;50.718;4.630;2023-02-14T04:41:55;0.80;99.90
23873;DHT22;42884;50.718;4.630;2023-02-14T04:44:21;0.90;99.90
23873;DHT22;42884;50.718;4.630;2023-02-14T04:46:47;0.80;99.90
23873;DHT22;42884;50.718;4.630;2023-02-14T04:49:12;0.90;99.90
23873;DHT22;42884;50.718;4.630;2023-02-14T04:51:38;0.80;99.90
23873;DHT22;42884;50.718;4.630;2023-02-14T04:54:04;0.80;99.90
23873;DHT22;42884;50.718;4.630;2023-02-14T04:56:29;0.80;99.90
23873;DHT22;42884;50.718;4.630;2023-02-14T04:58:55;0.80;99.90
23873;DHT22;42884;50.718;4.630;2023-02-14T05:01:21;0.80;99.90
23873;DHT22;42884;50.718;4.630;2023-02-14T05:03:46;0.80;99.90
23873;DHT22;42884;50.718;4.630;2023-02-14T05:06:12;0.80;99.90
23873;DHT22;42884;50.718;4.630;2023-02-14T05:08:37;0.70;99.90
23873;DHT22;42884;50.718;4.630;2023-02-14T05:11:03;0.70;99.90
23873;DHT22;42884;50.718;4.630;2023-02-14T05:13:29;0.70;99.90
23873;DHT22;42884;50.718;4.630;2023-02-14T05:15:56;0.70;99.90
23873;DHT22;42884;50.718;4.630;2023-02-14T05:18:22;0.70;99.90
23873;DHT22;42884;50.718;4.630;2023-02-14T05:20:51;0.70;99.90
23873;DHT22;42884;50.718;4.630;2023-02-14T05:23:17;0.70;99.90
23873;DHT22;42884;50.718;4.630;2023-02-14T05:25:43;0.70;99.90
23873;DHT22;42884;50.718;4.630;2023-02-14T05:28:09;0.60;99.90
23873;DHT22;42884;50.718;4.630;2023-02-14T05:30:35;0.60;99.90
23873;DHT22;42884;50.718;4.630;2023-02-14T05:33:01;0.60;99.90
23873;DHT22;42884;50.718;4.630;2023-02-14T05:35:27;0.60;99.90
23873;DHT22;42884;50.718;4.630;2023-02-14T05:37:52;0.50;99.90
23873;DHT22;42884;50.718;4.630;2023-02-14T05:40:18;0.60;99.90
23873;DHT22;42884;50.718;4.630;2023-02-14T05:42:44;0.60;99.90
23873;DHT22;42884;50.718;4.630;2023-02-14T05:45:10;0.60;99.90
23873;DHT22;42884;50.718;4.630;2023-02-14T05:47:36;0.60;99.90
23873;DHT22;42884;50.718;4.630;2023-02-14T05:50:01;0.60;99.90
23873;DHT22;42884;50.718;4.630;2023-02-14T05:52:27;0.60;99.90
23873;DHT22;42884;50.718;4.630;2023-02-14T05:54:52;0.60;99.90
23873;DHT22;42884;50.718;4.630;2023-02-14T05:57:18;0.60;99.90
23873;DHT22;42884;50.718;4.630;2023-02-14T05:59:43;0.60;99.90
23873;DHT22;42884;50.718;4.630;2023-02-14T06:02:09;0.60;99.90
23873;DHT22;42884;50.718;4.630;2023-02-14T06:04:35;0.50;99.90
23873;DHT22;42884;50.718;4.630;2023-02-14T06:07:00;0.50;99.90
23873;DHT22;42884;50.718;4.630;2023-02-14T06:09:26;0.50;99.90
23873;DHT22;42884;50.718;4.630;2023-02-14T06:11:51;0.50;99.90
23873;DHT22;42884;50.718;4.630;2023-02-14T06:14:17;0.50;99.90
23873;DHT22;42884;50.718;4.630;2023-02-14T06:16:43;0.50;99.90
23873;DHT22;42884;50.718;4.630;2023-02-14T06:19:08;0.50;99.90
23873;DHT22;42884;50.718;4.630;2023-02-14T06:21:34;0.50;99.90
23873;DHT22;42884;50.718;4.630;2023-02-14T06:24:00;0.40;99.90
23873;DHT22;42884;50.718;4.630;2023-02-14T06:26:25;0.50;99.90
23873;DHT22;42884;50.718;4.630;2023-02-14T06:28:53;0.40;99.90
23873;DHT22;42884;50.718;4.630;2023-02-14T06:31:18;0.40;99.90
23873;DHT22;42884;50.718;4.630;2023-02-14T06:33:44;0.40;99.90
23873;DHT22;42884;50.718;4.630;2023-02-14T06:36:09;0.40;99.90
23873;DHT22;42884;50.718;4.630;2023-02-14T06:38:35;0.50;99.90
23873;DHT22;42884;50.718;4.630;2023-02-14T06:41:01;0.40;99.90
23873;DHT22;42884;50.718;4.630;2023-02-14T06:43:27;0.40;99.90
23873;DHT22;42884;50.718;4.630;2023-02-14T06:45:53;0.30;99.90
23873;DHT22;42884;50.718;4.630;2023-02-14T06:48:18;0.40;99.90
23873;DHT22;42884;50.718;4.630;2023-02-14T06:50:45;0.40;99.90
23873;DHT22;42884;50.718;4.630;2023-02-14T06:53:10;0.40;99.90
23873;DHT22;42884;50.718;4.630;2023-02-14T06:55:36;0.40;99.90
23873;DHT22;42884;50.718;4.630;2023-02-14T06:58:02;0.30;99.90
23873;DHT22;42884;50.718;4.630;2023-02-14T07:00:27;0.40;99.90
23873;DHT22;42884;50.718;4.630;2023-02-14T07:02:53;0.40;99.90
23873;DHT22;42884;50.718;4.630;2023-02-14T07:05:19;0.40;99.90
23873;DHT22;42884;50.718;4.630;2023-02-14T07:07:45;0.30;99.90
23873;DHT22;42884;50.718;4.630;2023-02-14T07:10:11;0.40;99.90
23873;DHT22;42884;50.718;4.630;2023-02-14T07:12:36;0.40;99.90
23873;DHT22;42884;50.718;4.630;2023-02-14T07:15:07;0.40;99.90
23873;DHT22;42884;50.718;4.630;2023-02-14T07:17:33;0.40;99.90
23873;DHT22;42884;50.718;4.630;2023-02-14T07:19:58;0.40;99.90
23873;DHT22;42884;50.718;4.630;2023-02-14T07:22:24;0.40;99.90
23873;DHT22;42884;50.718;4.630;2023-02-14T07:24:50;0.40;99.90
23873;DHT22;42884;50.718;4.630;2023-02-14T07:27:15;0.30;99.90
23873;DHT22;42884;50.718;4.630;2023-02-14T07:29:41;0.50;99.90
23873;DHT22;42884;50.718;4.630;2023-02-14T07:32:06;0.50;99.90
23873;DHT22;42884;50.718;4.630;2023-02-14T07:34:32;0.50;99.90
23873;DHT22;42884;50.718;4.630;2023-02-14T07:36:58;0.50;99.90
23873;DHT22;42884;50.718;4.630;2023-02-14T07:39:23;0.60;99.90
23873;DHT22;42884;50.718;4.630;2023-02-14T07:41:49;0.60;99.90
23873;DHT22;42884;50.718;4.630;2023-02-14T07:44:14;0.60;99.90
23873;DHT22;42884;50.718;4.630;2023-02-14T07:46:40;0.60;99.90
23873;DHT22;42884;50.718;4.630;2023-02-14T07:49:06;0.70;99.90
23873;DHT22;42884;50.718;4.630;2023-02-14T07:51:31;0.70;99.90
23873;DHT22;42884;50.718;4.630;2023-02-14T07:53:57;0.70;99.90
23873;DHT22;42884;50.718;4.630;2023-02-14T07:56:22;0.80;99.90
23873;DHT22;42884;50.718;4.630;2023-02-14T07:58:48;0.80;99.90
23873;DHT22;42884;50.718;4.630;2023-02-14T08:01:14;0.80;99.90
23873;DHT22;42884;50.718;4.630;2023-02-14T08:03:40;0.90;99.90
23873;DHT22;42884;50.718;4.630;2023-02-14T08:06:09;0.90;99.90
23873;DHT22;42884;50.718;4.630;2023-02-14T08:08:34;1.00;99.90
23873;DHT22;42884;50.718;4.630;2023-02-14T08:11:00;1.00;99.90
23873;DHT22;42884;50.718;4.630;2023-02-14T08:13:26;1.10;99.90
23873;DHT22;42884;50.718;4.630;2023-02-14T08:15:51;1.20;99.90
23873;DHT22;42884;50.718;4.630;2023-02-14T08:18:30;1.30;99.90
23873;DHT22;42884;50.718;4.630;2023-02-14T08:20:56;1.20;99.90
23873;DHT22;42884;50.718;4.630;2023-02-14T08:23:22;1.40;99.90
23873;DHT22;42884;50.718;4.630;2023-02-14T08:25:48;1.50;99.90
23873;DHT22;42884;50.718;4.630;2023-02-14T08:28:14;1.50;99.90
23873;DHT22;42884;50.718;4.630;2023-02-14T08:30:40;1.60;99.90
23873;DHT22;42884;50.718;4.630;2023-02-14T08:33:06;1.70;99.90
23873;DHT22;42884;50.718;4.630;2023-02-14T08:35:31;1.80;99.90
23873;DHT22;42884;50.718;4.630;2023-02-14T08:37:57;1.80;99.90
23873;DHT22;42884;50.718;4.630;2023-02-14T08:40:23;1.80;99.90
23873;DHT22;42884;50.718;4.630;2023-02-14T08:42:48;1.90;99.90
23873;DHT22;42884;50.718;4.630;2023-02-14T08:45:14;1.90;99.90
23873;DHT22;42884;50.718;4.630;2023-02-14T08:47:40;2.00;99.90
23873;DHT22;42884;50.718;4.630;2023-02-14T08:50:07;2.20;99.90
23873;DHT22;42884;50.718;4.630;2023-02-14T08:52:33;2.30;99.90
23873;DHT22;42884;50.718;4.630;2023-02-14T08:54:58;2.30;99.90
23873;DHT22;42884;50.718;4.630;2023-02-14T08:57:24;2.50;99.90
23873;DHT22;42884;50.718;4.630;2023-02-14T08:59:52;2.70;99.90
23873;DHT22;42884;50.718;4.630;2023-02-14T09:02:17;2.90;99.90
23873;DHT22;42884;50.718;4.630;2023-02-14T09:04:43;3.00;99.90
23873;DHT22;42884;50.718;4.630;2023-02-14T09:07:12;3.00;99.90
23873;DHT22;42884;50.718;4.630;2023-02-14T09:09:37;3.10;99.90
23873;DHT22;42884;50.718;4.630;2023-02-14T09:12:03;3.20;99.90
23873;DHT22;42884;50.718;4.630;2023-02-14T09:14:29;3.20;99.90
23873;DHT22;42884;50.718;4.630;2023-02-14T09:16:58;3.40;99.90
23873;DHT22;42884;50.718;4.630;2023-02-14T09:19:25;3.60;99.90
23873;DHT22;42884;50.718;4.630;2023-02-14T09:21:51;3.70;99.90
23873;DHT22;42884;50.718;4.630;2023-02-14T09:24:16;3.90;99.90
23873;DHT22;42884;50.718;4.630;2023-02-14T09:26:42;4.20;99.90
23873;DHT22;42884;50.718;4.630;2023-02-14T09:29:07;4.50;99.90
23873;DHT22;42884;50.718;4.630;2023-02-14T09:31:35;4.80;99.90
23873;DHT22;42884;50.718;4.630;2023-02-14T09:34:02;5.10;99.90
23873;DHT22;42884;50.718;4.630;2023-02-14T09:36:27;5.50;99.90
23873;DHT22;42884;50.718;4.630;2023-02-14T09:38:53;5.80;99.90
23873;DHT22;42884;50.718;4.630;2023-02-14T09:43:58;6.30;99.90
23873;DHT22;42884;50.718;4.630;2023-02-14T09:46:26;6.90;99.90
23873;DHT22;42884;50.718;4.630;2023-02-14T09:48:53;8.00;99.90
23873;DHT22;42884;50.718;4.630;2023-02-14T09:51:20;9.60;99.90
23873;DHT22;42884;50.718;4.630;2023-02-14T09:56:19;12.40;99.90
23873;DHT22;42884;50.718;4.630;2023-02-14T09:59:10;13.70;99.90
23873;DHT22;42884;50.718;4.630;2023-02-14T10:04:37;16.40;99.90
23873;DHT22;42884;50.718;4.630;2023-02-14T10:07:09;17.70;99.90
23873;DHT22;42884;50.718;4.630;2023-02-14T10:09:43;18.40;99.90
23873;DHT22;42884;50.718;4.630;2023-02-14T10:12:20;18.40;99.90
23873;DHT22;42884;50.718;4.630;2023-02-14T10:14:46;19.70;99.90
23873;DHT22;42884;50.718;4.630;2023-02-14T10:22:05;19.20;99.90
23873;DHT22;42884;50.718;4.630;2023-02-14T10:24:46;19.60;99.50
23873;DHT22;42884;50.718;4.630;2023-02-14T10:30:19;19.10;99.60
23873;DHT22;42884;50.718;4.630;2023-02-14T10:48:21;17.00;99.90
23873;DHT22;42884;50.718;4.630;2023-02-14T10:53:38;18.00;99.90
23873;DHT22;42884;50.718;4.630;2023-02-14T10:56:21;18.90;99.90
23873;DHT22;42884;50.718;4.630;2023-02-14T10:58:49;19.70;99.90
23873;DHT22;42884;50.718;4.630;2023-02-14T11:01:16;20.30;99.90
23873;DHT22;42884;50.718;4.630;2023-02-14T11:06:36;22.30;97.60
23873;DHT22;42884;50.718;4.630;2023-02-14T11:09:01;22.40;95.50
23873;DHT22;42884;50.718;4.630;2023-02-14T11:13:53;22.50;93.80
23873;DHT22;42884;50.718;4.630;2023-02-14T11:16:39;22.30;93.90
23873;DHT22;42884;50.718;4.630;2023-02-14T11:21:40;23.50;93.90
23873;DHT22;42884;50.718;4.630;2023-02-14T11:24:19;24.00;93.00
23873;DHT22;42884;50.718;4.630;2023-02-14T11:26:49;24.50;93.60
23873;DHT22;42884;50.718;4.630;2023-02-14T11:29:41;24.40;93.20
23873;DHT22;42884;50.718;4.630;2023-02-14T11:32:06;24.00;93.80
23873;DHT22;42884;50.718;4.630;2023-02-14T11:34:37;23.40;91.00
23873;DHT22;42884;50.718;4.630;2023-02-14T11:37:23;22.40;93.30
23873;DHT22;42884;50.718;4.630;2023-02-14T11:39:50;22.60;92.30
23873;DHT22;42884;50.718;4.630;2023-02-14T11:42:40;22.80;92.10
23873;DHT22;42884;50.718;4.630;2023-02-14T11:45:06;22.10;92.40
23873;DHT22;42884;50.718;4.630;2023-02-14T11:47:33;22.30;93.10
23873;DHT22;42884;50.718;4.630;2023-02-14T11:50:03;22.80;92.90
23873;DHT22;42884;50.718;4.630;2023-02-14T11:52:36;23.10;91.50
23873;DHT22;42884;50.718;4.630;2023-02-14T11:55:19;23.50;92.00
23873;DHT22;42884;50.718;4.630;2023-02-14T11:57:46;23.80;91.80
23873;DHT22;42884;50.718;4.630;2023-02-14T12:00:15;24.40;91.70
23873;DHT22;42884;50.718;4.630;2023-02-14T12:02:48;23.70;90.60
23873;DHT22;42884;50.718;4.630;2023-02-14T12:05:22;23.50;90.60
23873;DHT22;42884;50.718;4.630;2023-02-14T12:07:54;23.30;90.90
23873;DHT22;42884;50.718;4.630;2023-02-14T12:10:22;23.40;91.00
23873;DHT22;42884;50.718;4.630;2023-02-14T12:12:58;23.80;91.00
23873;DHT22;42884;50.718;4.630;2023-02-14T12:15:29;24.30;90.60
23873;DHT22;42884;50.718;4.630;2023-02-14T12:23:20;26.30;87.60
23873;DHT22;42884;50.718;4.630;2023-02-14T12:25:53;26.10;84.10
23873;DHT22;42884;50.718;4.630;2023-02-14T12:28:23;26.00;83.90
23873;DHT22;42884;50.718;4.630;2023-02-14T12:30:51;25.40;85.00
23873;DHT22;42884;50.718;4.630;2023-02-14T12:33:20;26.00;82.00
23873;DHT22;42884;50.718;4.630;2023-02-14T12:35:50;26.00;79.40
23873;DHT22;42884;50.718;4.630;2023-02-14T12:46:23;27.80;79.60
23873;DHT22;42884;50.718;4.630;2023-02-14T12:51:54;26.50;80.60
23873;DHT22;42884;50.718;4.630;2023-02-14T13:02:34;25.40;78.30
23873;DHT22;42884;50.718;4.630;2023-02-14T13:07:51;26.30;77.90
23873;DHT22;42884;50.718;4.630;2023-02-14T13:13:03;25.50;81.10
23873;DHT22;42884;50.718;4.630;2023-02-14T13:20:44;25.50;77.20
23873;DHT22;42884;50.718;4.630;2023-02-14T13:23:14;25.50;79.10
23873;DHT22;42884;50.718;4.630;2023-02-14T13:25:41;25.20;75.40
23873;DHT22;42884;50.718;4.630;2023-02-14T13:28:13;24.90;77.80
23873;DHT22;42884;50.718;4.630;2023-02-14T13:30:39;25.80;79.10
23873;DHT22;42884;50.718;4.630;2023-02-14T13:33:09;25.90;74.50
23873;DHT22;42884;50.718;4.630;2023-02-14T13:35:38;25.90;76.40
23873;DHT22;42884;50.718;4.630;2023-02-14T13:38:06;26.00;76.70
23873;DHT22;42884;50.718;4.630;2023-02-14T13:40:32;26.70;76.40
23873;DHT22;42884;50.718;4.630;2023-02-14T13:42:59;26.80;72.30
23873;DHT22;42884;50.718;4.630;2023-02-14T13:50:38;28.80;74.10
23873;DHT22;42884;50.718;4.630;2023-02-14T13:53:09;29.50;72.00
23873;DHT22;42884;50.718;4.630;2023-02-14T13:55:36;29.10;69.50
23873;DHT22;42884;50.718;4.630;2023-02-14T13:58:14;29.50;71.60
23873;DHT22;42884;50.718;4.630;2023-02-14T14:00:42;30.00;70.80
23873;DHT22;42884;50.718;4.630;2023-02-14T14:03:12;29.50;70.60
23873;DHT22;42884;50.718;4.630;2023-02-14T14:10:47;29.70;68.70
23873;DHT22;42884;50.718;4.630;2023-02-14T14:18:42;29.80;67.80
23873;DHT22;42884;50.718;4.630;2023-02-14T14:21:41;29.90;67.00
23873;DHT22;42884;50.718;4.630;2023-02-14T14:24:11;30.20;66.90
23873;DHT22;42884;50.718;4.630;2023-02-14T14:26:49;30.00;62.80
23873;DHT22;42884;50.718;4.630;2023-02-14T14:29:21;30.00;64.30
23873;DHT22;42884;50.718;4.630;2023-02-14T14:31:48;30.30;62.20
23873;DHT22;42884;50.718;4.630;2023-02-14T14:34:20;29.70;62.40
23873;DHT22;42884;50.718;4.630;2023-02-14T14:36:46;29.90;62.70
23873;DHT22;42884;50.718;4.630;2023-02-14T14:39:13;28.90;62.80
23873;DHT22;42884;50.718;4.630;2023-02-14T14:41:49;27.80;63.50
23873;DHT22;42884;50.718;4.630;2023-02-14T14:44:14;26.20;65.40
23873;DHT22;42884;50.718;4.630;2023-02-14T14:46:40;25.30;68.10
23873;DHT22;42884;50.718;4.630;2023-02-14T14:49:07;24.40;68.70
23873;DHT22;42884;50.718;4.630;2023-02-14T14:51:35;23.70;71.40
23873;DHT22;42884;50.718;4.630;2023-02-14T14:54:12;23.20;73.90
23873;DHT22;42884;50.718;4.630;2023-02-14T14:59:16;21.80;76.40
23873;DHT22;42884;50.718;4.630;2023-02-14T15:01:42;21.30;77.70
23873;DHT22;42884;50.718;4.630;2023-02-14T15:04:16;21.00;81.00
23873;DHT22;42884;50.718;4.630;2023-02-14T15:06:42;20.60;81.80
23873;DHT22;42884;50.718;4.630;2023-02-14T15:09:21;20.20;83.40
23873;DHT22;42884;50.718;4.630;2023-02-14T15:11:47;19.80;83.80
23873;DHT22;42884;50.718;4.630;2023-02-14T15:14:36;19.20;85.40
23873;DHT22;42884;50.718;4.630;2023-02-14T15:17:04;18.60;85.60
23873;DHT22;42884;50.718;4.630;2023-02-14T15:19:43;18.20;89.20
23873;DHT22;42884;50.718;4.630;2023-02-14T15:24:51;17.90;90.80
23873;DHT22;42884;50.718;4.630;2023-02-14T15:27:21;17.50;91.00
23873;DHT22;42884;50.718;4.630;2023-02-14T15:29:58;17.50;91.60
23873;DHT22;42884;50.718;4.630;2023-02-14T15:32:24;17.10;92.20
23873;DHT22;42884;50.718;4.630;2023-02-14T15:34:50;17.00;93.20
23873;DHT22;42884;50.718;4.630;2023-02-14T15:37:17;16.90;93.60
23873;DHT22;42884;50.718;4.630;2023-02-14T15:39:45;16.70;94.30
23873;DHT22;42884;50.718;4.630;2023-02-14T15:42:18;16.40;94.70
23873;DHT22;42884;50.718;4.630;2023-02-14T15:44:47;16.20;95.40
23873;DHT22;42884;50.718;4.630;2023-02-14T15:47:13;15.90;95.80
23873;DHT22;42884;50.718;4.630;2023-02-14T15:49:40;15.70;96.50
23873;DHT22;42884;50.718;4.630;2023-02-14T15:52:10;15.60;97.00
23873;DHT22;42884;50.718;4.630;2023-02-14T15:54:37;15.50;97.50
23873;DHT22;42884;50.718;4.630;2023-02-14T15:57:03;15.30;98.00
23873;DHT22;42884;50.718;4.630;2023-02-14T15:59:34;15.20;98.50
23873;DHT22;42884;50.718;4.630;2023-02-14T16:04:45;15.00;98.90
23873;DHT22;42884;50.718;4.630;2023-02-14T16:09:46;14.70;99.90
23873;DHT22;42884;50.718;4.630;2023-02-14T16:12:35;14.60;99.90
23873;DHT22;42884;50.718;4.630;2023-02-14T16:14:59;14.20;99.90
23873;DHT22;42884;50.718;4.630;2023-02-14T16:17:31;14.00;99.90
23873;DHT22;42884;50.718;4.630;2023-02-14T16:19:58;13.80;99.90
23873;DHT22;42884;50.718;4.630;2023-02-14T16:22:25;13.70;99.90
23873;DHT22;42884;50.718;4.630;2023-02-14T16:24:59;13.60;99.90
23873;DHT22;42884;50.718;4.630;2023-02-14T16:27:25;13.40;99.90
23873;DHT22;42884;50.718;4.630;2023-02-14T16:29:51;13.10;99.90
23873;DHT22;42884;50.718;4.630;2023-02-14T16:32:20;13.00;99.90
23873;DHT22;42884;50.718;4.630;2023-02-14T16:34:46;12.80;99.90
23873;DHT22;42884;50.718;4.630;2023-02-14T16:37:20;12.60;99.90
23873;DHT22;42884;50.718;4.630;2023-02-14T16:39:46;12.40;99.90
23873;DHT22;42884;50.718;4.630;2023-02-14T16:42:14;12.20;99.90
23873;DHT22;42884;50.718;4.630;2023-02-14T16:44:40;12.10;99.90
23873;DHT22;42884;50.718;4.630;2023-02-14T16:47:12;11.90;99.90
23873;DHT22;42884;50.718;4.630;2023-02-14T16:49:38;11.80;99.90
23873;DHT22;42884;50.718;4.630;2023-02-14T16:52:04;11.50;99.90
23873;DHT22;42884;50.718;4.630;2023-02-14T16:54:30;11.30;99.90
23873;DHT22;42884;50.718;4.630;2023-02-14T16:56:56;11.10;99.90
23873;DHT22;42884;50.718;4.630;2023-02-14T16:59:23;10.90;99.90
23873;DHT22;42884;50.718;4.630;2023-02-14T17:01:49;10.70;99.90
23873;DHT22;42884;50.718;4.630;2023-02-14T17:04:14;10.60;99.90
23873;DHT22;42884;50.718;4.630;2023-02-14T17:06:40;10.40;99.90
23873;DHT22;42884;50.718;4.630;2023-02-14T17:09:08;10.30;99.90
23873;DHT22;42884;50.718;4.630;2023-02-14T17:11:36;10.20;99.90
23873;DHT22;42884;50.718;4.630;2023-02-14T17:14:04;10.10;99.90
23873;DHT22;42884;50.718;4.630;2023-02-14T17:16:30;9.90;99.90
23873;DHT22;42884;50.718;4.630;2023-02-14T17:18:55;9.80;99.90
23873;DHT22;42884;50.718;4.630;2023-02-14T17:21:22;9.70;99.90
23873;DHT22;42884;50.718;4.630;2023-02-14T17:23:48;9.60;99.90
23873;DHT22;42884;50.718;4.630;2023-02-14T17:26:14;9.40;99.90
23873;DHT22;42884;50.718;4.630;2023-02-14T17:28:42;9.30;99.90
23873;DHT22;42884;50.718;4.630;2023-02-14T17:31:07;9.20;99.90
23873;DHT22;42884;50.718;4.630;2023-02-14T17:33:33;9.10;99.90
23873;DHT22;42884;50.718;4.630;2023-02-14T17:36:09;9.10;99.90
23873;DHT22;42884;50.718;4.630;2023-02-14T17:38:36;9.00;99.90
23873;DHT22;42884;50.718;4.630;2023-02-14T17:41:11;8.90;99.90
23873;DHT22;42884;50.718;4.630;2023-02-14T17:43:37;8.90;99.90
23873;DHT22;42884;50.718;4.630;2023-02-14T17:46:03;8.70;99.90
23873;DHT22;42884;50.718;4.630;2023-02-14T17:48:28;8.60;99.90
23873;DHT22;42884;50.718;4.630;2023-02-14T17:50:54;8.40;99.90
23873;DHT22;42884;50.718;4.630;2023-02-14T17:53:19;8.20;99.90
23873;DHT22;42884;50.718;4.630;2023-02-14T17:55:45;8.10;99.90
23873;DHT22;42884;50.718;4.630;2023-02-14T17:58:11;8.00;99.90
23873;DHT22;42884;50.718;4.630;2023-02-14T18:00:36;8.00;99.90
23873;DHT22;42884;50.718;4.630;2023-02-14T18:03:02;7.90;99.90
23873;DHT22;42884;50.718;4.630;2023-02-14T18:05:28;7.80;99.90
23873;DHT22;42884;50.718;4.630;2023-02-14T18:07:53;7.70;99.90
23873;DHT22;42884;50.718;4.630;2023-02-14T18:10:19;7.70;99.90
23873;DHT22;42884;50.718;4.630;2023-02-14T18:12:44;7.70;99.90
23873;DHT22;42884;50.718;4.630;2023-02-14T18:15:10;7.50;99.90